Time;durP1;ratioP1;P1;durP2;ratioP2;P2;SDS_P1;SDS_P2;PMS_P1;PMS_P2;Temp;Humidity;BMP_temperature;BMP_pressure;BME280_temperature;BME280_humidity;BME280_pressure;Samples;Min_cycle;Max_cycle;Signal;HPM_P1;HPM_P2
2022/11/04 00:02:07;;;;;;;3.17;0.98;;;21.40;50.60;;;;;;6207073;28;20090;-35
2022/11/04 00:05:09;;;;;;;3.00;0.93;;;21.40;50.50;;;;;;6229789;28;20617;-35
2022/11/04 00:14:39;;;;;;;1.90;0.75;;;21.20;50.20;;;;;;6226001;28;20035;-37
2022/11/04 00:17:40;;;;;;;;;;;21.30;50.10;;;;;;6223984;28;20559;-35
2022/11/04 00:30:29;;;;;;;1.55;0.68;;;21.10;50.10;;;;;;6216988;28;20072;-35
2022/11/04 00:33:33;;;;;;;;;;;20.70;49.90;;;;;;6216816;28;20063;-36
2022/11/04 00:36:35;;;;;;;2.58;0.80;;;21.10;50.40;;;;;;6217591;28;20047;-35
2022/11/04 00:39:36;;;;;;;2.15;0.70;;;21.10;50.20;;;;;;6224123;28;20151;-35
2022/11/04 00:42:38;;;;;;;2.42;0.80;;;21.10;50.20;;;;;;6221058;28;20066;-35
2022/11/04 00:45:40;;;;;;;2.83;0.80;;;21.30;50.20;;;;;;6222800;28;20135;-35
2022/11/04 00:48:42;;;;;;;1.27;0.60;;;21.20;50.30;;;;;;6226696;28;20045;-37
2022/11/04 00:51:44;;;;;;;2.35;1.05;;;21.20;50.30;;;;;;6220966;28;20055;-36
2022/11/04 00:54:45;;;;;;;;;;;20.90;50.10;;;;;;6221308;28;21193;-36
2022/11/04 00:57:47;;;;;;;2.92;1.30;;;21.40;50.50;;;;;;6224238;28;19924;-35
2022/11/04 01:00:48;;;;;;;;;;;21.20;50.30;;;;;;6198849;28;20049;-36
2022/11/04 01:03:52;;;;;;;2.97;0.93;;;21.00;50.50;;;;;;6199264;28;21020;-36
2022/11/04 01:06:53;;;;;;;2.22;0.90;;;20.80;50.00;;;;;;6180596;28;20095;-35
2022/11/04 01:09:55;;;;;;;3.42;1.35;;;20.80;50.20;;;;;;6205479;28;20065;-36
2022/11/04 01:12:56;;;;;;;;;;;20.80;50.20;;;;;;6197556;28;20045;-36
2022/11/04 01:15:58;;;;;;;2.05;0.80;;;21.80;50.90;;;;;;6195620;28;19928;-35
2022/11/04 01:19:01;;;;;;;1.85;0.82;;;21.30;50.40;;;;;;6199893;28;20041;-35
2022/11/04 01:22:05;;;;;;;1.40;0.75;;;21.10;50.10;;;;;;6179618;28;20041;-35
2022/11/04 01:25:09;;;;;;;0.47;0.30;;;21.30;50.00;;;;;;6197100;28;20568;-35
2022/11/04 01:28:10;;;;;;;1.08;0.40;;;21.10;49.70;;;;;;6194468;28;20147;-34
2022/11/04 01:31:14;;;;;;;0.93;0.40;;;21.20;49.60;;;;;;6199146;28;20774;-35
2022/11/04 01:34:17;;;;;;;0.85;0.30;;;21.30;49.30;;;;;;6199666;23;20044;-35
2022/11/04 01:37:18;;;;;;;0.47;0.20;;;20.80;49.10;;;;;;6223026;28;20327;-35
2022/11/04 01:40:19;;;;;;;;;;;21.30;49.10;;;;;;6228609;28;20145;-38
2022/11/04 01:43:22;;;;;;;0.70;0.30;;;21.30;49.40;;;;;;6231209;28;19996;-35
2022/11/04 01:46:31;;;;;;;0.43;0.28;;;21.00;48.90;;;;;;6234408;28;20949;-35
2022/11/04 01:49:38;;;;;;;0.40;0.30;;;21.00;48.40;;;;;;6211809;28;20143;-35
2022/11/04 01:52:49;;;;;;;0.57;0.15;;;20.90;48.10;;;;;;6210991;28;20041;-36
2022/11/04 01:55:57;;;;;;;0.38;0.20;;;20.90;47.90;;;;;;6226698;28;20041;-35
2022/11/04 01:59:03;;;;;;;0.63;0.30;;;20.90;47.60;;;;;;6214421;28;20207;-35
2022/11/04 02:02:05;;;;;;;0.63;0.20;;;21.20;47.60;;;;;;6211718;28;20118;-35
2022/11/04 02:05:11;;;;;;;0.47;0.28;;;21.00;47.30;;;;;;6211999;28;20971;-34
2022/11/04 02:08:14;;;;;;;1.27;0.40;;;21.30;47.20;;;;;;6234193;28;20044;-35
2022/11/04 02:14:34;;;;;;;0.57;0.40;;;21.20;46.70;;;;;;6217845;28;20051;-35
2022/11/04 02:17:50;;;;;;;0.40;0.15;;;21.30;46.50;;;;;;6215457;28;20037;-35
2022/11/04 02:21:10;;;;;;;0.32;0.20;;;21.10;46.20;;;;;;6228872;28;20796;-35
2022/11/04 02:24:41;;;;;;;0.47;0.20;;;21.00;45.90;;;;;;6214604;28;20041;-35
2022/11/04 02:28:04;;;;;;;0.22;0.10;;;21.30;45.80;;;;;;6234836;28;20946;-35
2022/11/04 02:31:14;;;;;;;0.30;0.20;;;20.70;45.40;;;;;;6229122;28;20800;-35
2022/11/04 02:34:21;;;;;;;0.20;0.10;;;21.20;45.80;;;;;;6219161;28;20164;-34
2022/11/04 02:37:32;;;;;;;0.40;0.13;;;21.10;45.60;;;;;;6208290;28;20082;-35
2022/11/04 02:40:41;;;;;;;0.57;0.20;;;21.20;45.50;;;;;;6212031;28;20048;-35
2022/11/04 02:43:52;;;;;;;0.10;0.10;;;21.20;45.30;;;;;;6214764;28;20354;-35
2022/11/04 02:47:01;;;;;;;0.17;0.10;;;20.90;45.10;;;;;;6209320;28;20052;-35
2022/11/04 02:50:09;;;;;;;0.28;0.10;;;20.80;45.00;;;;;;6211073;28;20287;-35
2022/11/04 02:53:16;;;;;;;0.10;0.10;;;21.00;45.10;;;;;;6209524;28;20488;-34
2022/11/04 02:56:22;;;;;;;0.40;0.10;;;21.10;45.10;;;;;;6213570;28;20045;-34
2022/11/04 02:59:32;;;;;;;0.40;0.22;;;20.80;45.00;;;;;;6211141;28;20448;-35
2022/11/04 03:02:39;;;;;;;0.40;0.25;;;20.70;44.70;;;;;;6195008;28;20155;-35
2022/11/04 03:05:47;;;;;;;0.82;0.38;;;20.60;44.70;;;;;;6209854;28;20037;-35
2022/11/04 03:08:51;;;;;;;0.73;0.28;;;21.00;45.00;;;;;;6213698;28;20147;-34
2022/11/04 03:11:57;;;;;;;0.32;0.22;;;21.20;45.00;;;;;;6208036;28;20241;-35
2022/11/04 03:15:03;;;;;;;0.20;0.20;;;21.00;44.80;;;;;;6213597;28;20803;-35
2022/11/04 03:18:16;;;;;;;0.50;0.30;;;21.20;45.10;;;;;;6212813;28;20478;-34
2022/11/04 03:21:19;;;;;;;0.13;0.10;;;21.10;45.00;;;;;;6210851;28;20508;-34
2022/11/04 03:24:21;;;;;;;0.10;0.10;;;21.00;44.80;;;;;;6215217;28;20037;-35
2022/11/04 03:27:29;;;;;;;0.30;0.20;;;21.20;45.10;;;;;;6211935;28;20165;-34
2022/11/04 03:30:39;;;;;;;0.20;0.20;;;20.70;44.60;;;;;;6209261;28;20057;-35
2022/11/04 03:33:46;;;;;;;0.40;0.20;;;21.00;44.70;;;;;;6202100;28;20459;-35
2022/11/04 03:36:48;;;;;;;0.43;0.20;;;21.00;44.70;;;;;;6205126;28;20300;-35
2022/11/04 03:39:52;;;;;;;;;;;21.00;44.80;;;;;;6207665;28;20539;-35
2022/11/04 03:42:58;;;;;;;0.20;0.10;;;21.20;45.10;;;;;;6204994;28;19935;-35
2022/11/04 03:45:59;;;;;;;0.22;0.20;;;21.00;44.80;;;;;;6205980;28;20157;-35
2022/11/04 03:49:02;;;;;;;0.13;0.13;;;21.10;45.00;;;;;;6206798;28;20107;-35
2022/11/04 03:52:04;;;;;;;0.15;0.15;;;20.70;44.60;;;;;;6213763;28;20091;-35
2022/11/04 03:55:08;;;;;;;0.25;0.10;;;21.10;44.90;;;;;;6215231;28;20041;-35
2022/11/04 03:58:23;;;;;;;0.25;0.20;;;21.30;45.00;;;;;;6209855;28;20460;-34
2022/11/04 04:01:35;;;;;;;0.65;0.30;;;21.10;44.80;;;;;;6211543;28;20045;-35
2022/11/04 04:04:43;;;;;;;0.10;0.10;;;21.10;44.80;;;;;;6210677;28;20048;-35
2022/11/04 04:07:51;;;;;;;0.30;0.30;;;21.00;44.80;;;;;;6210768;28;20200;-36
2022/11/04 04:11:05;;;;;;;0.43;0.20;;;21.20;45.00;;;;;;6211276;28;20239;-35
2022/11/04 04:14:38;;;;;;;0.20;0.15;;;20.80;44.80;;;;;;6209754;28;20232;-34
2022/11/04 04:17:54;;;;;;;0.15;0.15;;;21.00;44.90;;;;;;6211465;28;20037;-35
2022/11/04 04:21:00;;;;;;;0.20;0.20;;;20.70;44.80;;;;;;6217509;28;20090;-35
2022/11/04 04:30:37;;;;;;;0.30;0.20;;;20.90;45.10;;;;;;6206289;28;20171;-35
2022/11/04 04:33:38;;;;;;;0.20;0.15;;;21.00;45.20;;;;;;6209686;28;20155;-35
2022/11/04 04:36:45;;;;;;;0.45;0.17;;;20.60;45.10;;;;;;6208357;28;20045;-35
2022/11/04 04:46:28;;;;;;;0.13;0.10;;;21.00;45.30;;;;;;6209351;28;20079;-35
2022/11/04 04:49:33;;;;;;;0.55;0.20;;;20.90;45.40;;;;;;6204834;28;20048;-35
2022/11/04 04:52:39;;;;;;;0.82;0.30;;;21.00;45.70;;;;;;6209805;28;20444;-35
2022/11/04 04:55:40;;;;;;;0.13;0.10;;;21.00;45.80;;;;;;6201988;28;20041;-34
2022/11/04 04:58:43;;;;;;;0.40;0.20;;;21.10;46.00;;;;;;6208405;28;20041;-35
2022/11/04 05:01:44;;;;;;;;;;;20.70;46.00;;;;;;6212355;28;20918;-35
2022/11/04 05:04:46;;;;;;;0.35;0.10;;;20.70;46.30;;;;;;6211389;28;19925;-35
2022/11/04 05:07:48;;;;;;;0.47;0.40;;;21.00;46.70;;;;;;6210959;28;20309;-35
2022/11/04 05:10:49;;;;;;;0.38;0.20;;;21.00;46.50;;;;;;6207429;28;20519;-35
2022/11/04 05:13:51;;;;;;;1.00;0.40;;;21.00;47.10;;;;;;6212766;28;20065;-34
2022/11/04 05:16:52;;;;;;;;;;;21.10;46.80;;;;;;6207960;28;20095;-35
2022/11/04 05:19:54;;;;;;;0.35;0.10;;;21.00;47.10;;;;;;6206405;28;20402;-35
2022/11/04 05:22:55;;;;;;;;;;;20.70;46.70;;;;;;6208709;28;20595;-35
2022/11/04 05:25:57;;;;;;;;;;;20.70;47.00;;;;;;6212661;28;19983;-35
2022/11/04 05:28:58;;;;;;;0.70;0.20;;;21.00;47.20;;;;;;6209073;28;20275;-34
2022/11/04 05:32:03;;;;;;;0.35;0.20;;;20.90;47.00;;;;;;6205889;28;20401;-34
2022/11/04 05:35:06;;;;;;;0.55;0.20;;;20.40;46.90;;;;;;6214108;28;20545;-35
2022/11/04 05:38:08;;;;;;;0.32;0.20;;;21.10;47.40;;;;;;6215796;28;20072;-35
2022/11/04 05:41:24;;;;;;;0.22;0.10;;;21.00;47.40;;;;;;6211679;28;20091;-35
2022/11/04 05:44:26;;;;;;;0.40;0.20;;;20.60;47.20;;;;;;6210187;28;20072;-35
2022/11/04 05:47:27;;;;;;;0.28;0.10;;;21.00;47.50;;;;;;6208891;28;20866;-35
2022/11/04 05:50:29;;;;;;;;;;;21.10;48.00;;;;;;6205097;28;20187;-34
2022/11/04 05:53:31;;;;;;;0.30;0.20;;;20.60;47.50;;;;;;6203632;28;20325;-34
2022/11/04 05:56:32;;;;;;;0.30;0.20;;;21.10;47.70;;;;;;6202016;28;20887;-35
2022/11/04 05:59:37;;;;;;;0.40;0.10;;;20.90;47.50;;;;;;6205631;28;21295;-34
2022/11/04 06:02:38;;;;;;;0.38;0.20;;;21.00;47.70;;;;;;6198879;28;20161;-35
2022/11/04 06:05:40;;;;;;;;;;;20.80;47.60;;;;;;6200166;28;20398;-34
2022/11/04 06:08:42;;;;;;;0.20;0.10;;;20.80;47.90;;;;;;6204263;28;19921;-35
2022/11/04 06:11:46;;;;;;;0.35;0.22;;;20.60;47.60;;;;;;6210635;28;20043;-34
2022/11/04 06:14:47;;;;;;;0.30;0.20;;;20.60;47.70;;;;;;6206415;28;20045;-35
2022/11/04 06:17:52;;;;;;;;;;;21.00;47.80;;;;;;6205813;28;20141;-35
2022/11/04 06:21:07;;;;;;;0.17;0.10;;;21.10;48.30;;;;;;6210254;28;19929;-35
2022/11/04 06:24:09;;;;;;;0.40;0.20;;;20.80;47.90;;;;;;6202911;28;20049;-35
2022/11/04 06:27:11;;;;;;;0.47;0.17;;;21.00;48.20;;;;;;6197856;28;20040;-35
2022/11/04 06:30:13;;;;;;;0.10;0.10;;;20.90;48.10;;;;;;6197110;28;20039;-34
2022/11/04 06:33:14;;;;;;;0.20;0.20;;;20.70;62.30;;;;;;6199233;28;20144;-35
2022/11/04 06:36:16;;;;;;;0.08;0.00;;;20.70;48.10;;;;;;6204753;28;20045;-35
2022/11/04 06:39:18;;;;;;;0.25;0.20;;;20.80;48.10;;;;;;6193160;28;20053;-35
2022/11/04 06:42:20;;;;;;;0.30;0.20;;;20.60;48.10;;;;;;6201076;28;20049;-34
2022/11/04 06:45:21;;;;;;;0.20;0.10;;;20.80;48.30;;;;;;6198860;28;20041;-35
2022/11/04 06:48:23;;;;;;;0.00;0.00;;;21.10;48.50;;;;;;6196642;28;20044;-35
2022/11/04 06:51:25;;;;;;;0.52;0.10;;;21.00;48.40;;;;;;6196633;28;20152;-35
2022/11/04 06:54:27;;;;;;;0.10;0.10;;;21.00;48.60;;;;;;6197042;28;20236;-34
2022/11/04 06:57:28;;;;;;;0.30;0.10;;;20.70;48.40;;;;;;6196588;28;20870;-35
2022/11/04 07:00:30;;;;;;;0.20;0.10;;;20.90;48.60;;;;;;6188437;28;20041;-35
2022/11/04 07:03:31;;;;;;;0.30;0.22;;;20.80;48.50;;;;;;6189195;28;20820;-35
2022/11/04 07:06:33;;;;;;;0.57;0.13;;;20.60;48.50;;;;;;6190805;28;20033;-35
2022/11/04 07:09:35;;;;;;;;;;;21.00;48.70;;;;;;6182954;28;20033;-35
2022/11/04 07:12:36;;;;;;;0.40;0.20;;;20.80;48.80;;;;;;6186731;28;19928;-34
2022/11/04 07:15:38;;;;;;;0.38;0.10;;;20.90;48.70;;;;;;6184086;28;20041;-35
2022/11/04 07:18:40;;;;;;;0.43;0.20;;;21.00;48.90;;;;;;6174885;28;20140;-34
2022/11/04 07:21:42;;;;;;;0.10;0.10;;;21.00;48.90;;;;;;6170719;28;20045;-35
2022/11/04 07:24:44;;;;;;;0.22;0.10;;;20.80;48.80;;;;;;6168388;28;20037;-35
2022/11/04 07:27:45;;;;;;;0.10;0.10;;;20.60;48.80;;;;;;6165153;28;20048;-36
2022/11/04 07:30:47;;;;;;;;;;;20.80;49.00;;;;;;6165209;28;20056;-35
2022/11/04 07:33:50;;;;;;;;;;;21.20;49.70;;;;;;6174333;28;19928;-35
2022/11/04 07:36:51;;;;;;;2.38;0.10;;;20.70;49.10;;;;;;6163135;28;19951;-35
2022/11/04 07:39:53;;;;;;;;;;;20.80;49.20;;;;;;6163187;28;20052;-35
2022/11/04 07:42:54;;;;;;;;;;;20.50;49.30;;;;;;6162089;28;19934;-34
2022/11/04 07:46:11;;;;;;;0.10;0.10;;;20.60;49.30;;;;;;6144057;28;19929;-35
2022/11/04 07:49:13;;;;;;;0.40;0.15;;;21.10;49.50;;;;;;6120183;28;20049;-35
2022/11/04 07:52:14;;;;;;;0.32;0.20;;;21.20;49.90;;;;;;6142798;28;21096;-35
2022/11/04 07:55:17;;;;;;;0.65;0.20;;;20.90;50.10;;;;;;6117259;28;21606;-35
2022/11/04 07:58:22;;;;;;;0.10;0.10;;;21.10;50.20;;;;;;6108954;28;21782;-36
2022/11/04 08:01:24;;;;;;;0.10;0.10;;;20.90;50.40;;;;;;6084015;28;20052;-35
2022/11/04 08:04:26;;;;;;;0.38;0.20;;;21.20;50.50;;;;;;6096393;28;20045;-36
2022/11/04 08:07:27;;;;;;;1.08;0.10;;;20.80;50.40;;;;;;6095156;28;20159;-36
2022/11/04 08:10:29;;;;;;;;;;;21.20;50.50;;;;;;6099433;28;20052;-35
2022/11/04 08:13:32;;;;;;;0.40;0.20;;;20.90;50.50;;;;;;6087876;28;19936;-36
2022/11/04 08:16:34;;;;;;;0.75;0.30;;;21.10;50.30;;;;;;6074539;28;20048;-35
2022/11/04 08:19:36;;;;;;;0.30;0.20;;;20.80;50.30;;;;;;6081430;28;20049;-35
2022/11/04 08:22:37;;;;;;;0.40;0.20;;;21.10;50.70;;;;;;6097714;28;21009;-35
2022/11/04 08:25:40;;;;;;;0.20;0.17;;;21.20;50.70;;;;;;6086262;28;20037;-35
2022/11/04 08:28:41;;;;;;;1.85;0.38;;;21.10;50.80;;;;;;6098579;28;20049;-35
2022/11/04 08:31:46;;;;;;;0.10;0.10;;;21.00;50.80;;;;;;6094013;28;21655;-35
2022/11/04 08:34:48;;;;;;;0.40;0.30;;;20.90;50.80;;;;;;6078511;28;21012;-35
2022/11/04 08:37:49;;;;;;;1.65;0.20;;;20.90;50.80;;;;;;6089216;28;20080;-35
2022/11/04 08:40:55;;;;;;;0.25;0.10;;;20.80;50.70;;;;;;6096244;28;21994;-35
2022/11/04 08:44:03;;;;;;;0.40;0.20;;;21.30;50.90;;;;;;6095662;28;20152;-35
2022/11/04 08:47:06;;;;;;;0.52;0.20;;;21.20;50.80;;;;;;6094582;28;20049;-35
2022/11/04 08:50:08;;;;;;;0.20;0.13;;;21.10;50.90;;;;;;6074563;28;20129;-35
2022/11/04 08:53:11;;;;;;;0.28;0.20;;;21.40;50.70;;;;;;6079593;28;20058;-35
2022/11/04 08:56:17;;;;;;;2.08;0.20;;;21.10;50.40;;;;;;6070184;28;20037;-37
2022/11/04 08:59:18;;;;;;;0.10;0.10;;;21.40;50.50;;;;;;6051013;28;20311;-36
2022/11/04 09:02:19;;;;;;;;;;;21.40;50.40;;;;;;6045777;28;20041;-35
2022/11/04 09:05:21;;;;;;;0.20;0.13;;;21.50;50.70;;;;;;6047130;28;19982;-35
2022/11/04 09:08:24;;;;;;;0.38;0.20;;;21.30;50.30;;;;;;6042599;28;20108;-35
2022/11/04 09:11:26;;;;;;;;;;;21.30;50.20;;;;;;6067043;28;22087;-35
2022/11/04 09:14:27;;;;;;;0.40;0.30;;;21.30;50.30;;;;;;6051572;28;19936;-35
2022/11/04 09:17:31;;;;;;;0.30;0.30;;;21.30;50.10;;;;;;6053432;28;20045;-35
2022/11/04 09:20:33;;;;;;;0.57;0.40;;;21.20;50.10;;;;;;6067234;28;20069;-35
2022/11/04 09:23:36;;;;;;;0.20;0.15;;;21.40;50.10;;;;;;6073955;28;21014;-35
2022/11/04 09:26:39;;;;;;;0.32;0.20;;;21.20;49.90;;;;;;6079509;28;20059;-36
2022/11/04 09:29:43;;;;;;;0.40;0.20;;;21.40;50.00;;;;;;6069372;28;20164;-35
2022/11/04 09:32:46;;;;;;;0.22;0.20;;;21.10;49.80;;;;;;6074508;28;20056;-36
2022/11/04 09:35:55;;;;;;;0.57;0.30;;;21.40;49.50;;;;;;6065642;28;20049;-36
2022/11/04 09:38:56;;;;;;;0.43;0.20;;;21.50;49.60;;;;;;6079280;28;20799;-35
2022/11/04 09:42:08;;;;;;;;;;;21.40;49.50;;;;;;6061992;28;20048;-35
2022/11/04 09:45:14;;;;;;;0.20;0.17;;;21.30;49.50;;;;;;6086516;28;21212;-35
2022/11/04 09:48:28;;;;;;;0.20;0.20;;;21.20;49.20;;;;;;6066937;28;20060;-35
2022/11/04 09:51:30;;;;;;;1.52;0.73;;;21.30;49.20;;;;;;6063772;28;20045;-35
2022/11/04 09:54:59;;;;;;;0.55;0.28;;;21.10;48.90;;;;;;6066409;28;21670;-35
2022/11/04 09:58:03;;;;;;;0.63;0.20;;;21.40;48.90;;;;;;6057413;28;21122;-35
2022/11/04 10:01:17;;;;;;;0.25;0.20;;;21.30;48.80;;;;;;6069220;28;20049;-34
2022/11/04 10:04:33;;;;;;;0.60;0.30;;;21.60;48.80;;;;;;6069640;28;21246;-36
2022/11/04 10:07:49;;;;;;;0.45;0.28;;;21.40;48.60;;;;;;6039341;28;20146;-35
2022/11/04 10:10:58;;;;;;;0.47;0.20;;;21.30;48.30;;;;;;6056227;28;20052;-36
2022/11/04 10:14:16;;;;;;;0.30;0.10;;;21.20;48.20;;;;;;6059817;28;20052;-35
2022/11/04 10:17:37;;;;;;;0.43;0.20;;;21.40;48.10;;;;;;6064159;28;20044;-35
2022/11/04 10:20:49;;;;;;;0.95;0.15;;;21.60;48.00;;;;;;6066731;28;20159;-35
2022/11/04 10:24:04;;;;;;;0.65;0.20;;;21.50;47.90;;;;;;6052507;28;20172;-35
2022/11/04 10:27:14;;;;;;;0.40;0.35;;;21.40;47.70;;;;;;6029634;28;20045;-35
2022/11/04 10:30:19;;;;;;;0.32;0.30;;;21.60;47.70;;;;;;6045395;28;20055;-35
2022/11/04 10:33:27;;;;;;;0.52;0.30;;;21.40;61.50;;;;;;6079820;28;20048;-36
2022/11/04 10:36:29;;;;;;;0.80;0.40;;;21.20;47.30;;;;;;6073801;28;20045;-35
2022/11/04 10:39:36;;;;;;;0.65;0.35;;;21.50;48.00;;;;;;6049117;28;20045;-35
2022/11/04 10:42:38;;;;;;;0.30;0.20;;;21.60;47.40;;;;;;6052242;28;20041;-37
2022/11/04 10:45:48;;;;;;;0.80;0.20;;;21.50;47.00;;;;;;6056534;28;20037;-35
2022/11/04 10:48:54;;;;;;;0.30;0.20;;;21.60;47.20;;;;;;6047037;28;20168;-35
2022/11/04 10:51:56;;;;;;;0.30;0.20;;;21.30;46.90;;;;;;6033888;28;20072;-35
2022/11/04 10:54:58;;;;;;;0.50;0.40;;;21.60;46.90;;;;;;6070356;28;20041;-35
2022/11/04 10:58:00;;;;;;;0.47;0.30;;;21.30;46.50;;;;;;6069226;28;20033;-36
2022/11/04 11:01:23;;;;;;;0.95;0.30;;;21.60;46.70;;;;;;6031929;28;20057;-35
2022/11/04 11:04:29;;;;;;;0.20;0.20;;;21.60;46.70;;;;;;6079307;28;20051;-35
2022/11/04 11:07:36;;;;;;;0.80;0.20;;;21.50;46.50;;;;;;6069004;28;20153;-35
2022/11/04 11:10:49;;;;;;;0.68;0.40;;;21.50;46.40;;;;;;6029497;28;20053;-35
2022/11/04 11:13:51;;;;;;;0.47;0.30;;;21.40;46.30;;;;;;6071685;28;20049;-35
2022/11/04 11:16:53;;;;;;;;;;;21.50;46.20;;;;;;6064407;28;20090;-36
2022/11/04 11:19:57;;;;;;;0.45;0.20;;;21.50;46.90;;;;;;6063051;28;20027;-35
2022/11/04 11:23:00;;;;;;;0.65;0.40;;;21.50;46.10;;;;;;6057683;28;20045;-35
2022/11/04 11:26:08;;;;;;;0.50;0.30;;;21.60;46.00;;;;;;6080358;28;20037;-35
2022/11/04 11:29:11;;;;;;;0.82;0.30;;;21.50;45.70;;;;;;6096682;28;21595;-35
2022/11/04 11:32:29;;;;;;;0.43;0.20;;;21.60;45.60;;;;;;6039233;28;20155;-35
2022/11/04 11:35:40;;;;;;;0.60;0.20;;;21.30;45.20;;;;;;6068798;28;20540;-35
2022/11/04 11:38:53;;;;;;;0.50;0.13;;;21.50;45.30;;;;;;6045596;28;20045;-35
2022/11/04 11:41:58;;;;;;;0.47;0.30;;;21.70;45.90;;;;;;6037038;28;20052;-35
2022/11/04 11:45:03;;;;;;;0.40;0.20;;;21.10;44.90;;;;;;6095169;28;20103;-35
2022/11/04 11:48:27;;;;;;;0.57;0.20;;;21.30;44.90;;;;;;6089643;28;20049;-35
2022/11/04 11:51:31;;;;;;;0.40;0.20;;;21.80;45.10;;;;;;6078171;28;21075;-36
2022/11/04 11:54:37;;;;;;;0.88;0.40;;;21.30;44.90;;;;;;6080829;28;20044;-35
2022/11/04 11:57:48;;;;;;;1.60;0.40;;;21.70;45.00;;;;;;6084946;28;20045;-36
2022/11/04 12:01:17;;;;;;;0.63;0.20;;;21.70;45.00;;;;;;6042033;28;20171;-35
2022/11/04 12:04:25;;;;;;;0.20;0.20;;;22.10;45.20;;;;;;6115970;28;20075;-35
2022/11/04 12:07:53;;;;;;;0.30;0.20;;;21.60;44.90;;;;;;6096294;28;21691;-35
2022/11/04 12:11:20;;;;;;;0.20;0.20;;;21.50;44.70;;;;;;6085286;28;20045;-35
2022/11/04 12:14:31;;;;;;;0.80;0.30;;;21.50;44.70;;;;;;6097832;28;20152;-36
2022/11/04 12:17:48;;;;;;;0.25;0.20;;;21.70;44.70;;;;;;6103101;28;20771;-35
2022/11/04 12:20:57;;;;;;;0.40;0.20;;;21.50;44.40;;;;;;6091470;28;20048;-35
2022/11/04 12:24:05;;;;;;;0.32;0.20;;;21.80;44.50;;;;;;6090194;28;20071;-36
2022/11/04 12:27:16;;;;;;;0.30;0.10;;;21.70;44.50;;;;;;6105360;28;20045;-36
2022/11/04 12:30:24;;;;;;;0.50;0.20;;;21.70;44.30;;;;;;6104201;28;20087;-35
2022/11/04 12:33:39;;;;;;;0.10;0.10;;;21.60;44.30;;;;;;6071765;28;21911;-35
2022/11/04 12:36:55;;;;;;;0.30;0.30;;;21.60;44.20;;;;;;6069302;28;22316;-35
2022/11/04 12:40:11;;;;;;;0.38;0.20;;;21.20;43.80;;;;;;6095144;28;20138;-35
2022/11/04 12:43:21;;;;;;;0.77;0.30;;;21.70;44.00;;;;;;6055895;28;20053;-36
2022/11/04 12:46:32;;;;;;;0.22;0.10;;;21.70;43.90;;;;;;6042672;28;20048;-35
2022/11/04 12:49:47;;;;;;;0.40;0.15;;;21.50;43.80;;;;;;6107155;28;20075;-35
2022/11/04 12:53:09;;;;;;;0.20;0.20;;;21.70;43.90;;;;;;6060626;28;20044;-35
2022/11/04 12:56:14;;;;;;;1.55;0.45;;;21.50;43.90;;;;;;6062199;28;22225;-35
2022/11/04 12:59:38;;;;;;;0.65;0.22;;;21.60;43.90;;;;;;6088726;28;20076;-35
2022/11/04 13:02:45;;;;;;;0.90;0.40;;;21.20;43.70;;;;;;6013882;28;20049;-36
2022/11/04 13:05:51;;;;;;;0.45;0.20;;;21.20;43.70;;;;;;6033205;28;20041;-35
2022/11/04 13:08:58;;;;;;;0.82;0.30;;;21.40;43.80;;;;;;6074751;28;20136;-35
2022/11/04 13:12:05;;;;;;;0.32;0.20;;;21.60;43.80;;;;;;6013117;28;20076;-35
2022/11/04 13:15:15;;;;;;;0.38;0.30;;;21.40;43.60;;;;;;6065299;28;20095;-35
2022/11/04 13:18:25;;;;;;;0.50;0.13;;;21.70;43.70;;;;;;6069430;28;20052;-35
2022/11/04 13:21:32;;;;;;;0.65;0.30;;;22.00;43.80;;;;;;6060376;28;20179;-36
2022/11/04 13:24:37;;;;;;;0.40;0.20;;;21.80;43.70;;;;;;6067989;28;20052;-35
2022/11/04 13:27:43;;;;;;;0.30;0.25;;;21.80;43.70;;;;;;6064868;28;20037;-36
2022/11/04 13:30:51;;;;;;;0.32;0.10;;;21.70;43.50;;;;;;6063926;28;22187;-35
2022/11/04 13:33:58;;;;;;;0.30;0.10;;;21.70;43.50;;;;;;6056932;28;20057;-36
2022/11/04 13:37:08;;;;;;;0.63;0.30;;;21.80;43.70;;;;;;6050302;28;21369;-35
2022/11/04 13:40:15;;;;;;;0.73;0.35;;;21.80;43.60;;;;;;6072729;28;20123;-35
2022/11/04 13:46:45;;;;;;;0.70;0.30;;;21.80;43.60;;;;;;6074777;28;20049;-35
2022/11/04 13:49:50;;;;;;;0.93;0.30;;;21.60;43.90;;;;;;6072186;28;20061;-35
2022/11/04 13:52:51;;;;;;;0.70;0.25;;;21.60;43.30;;;;;;6072480;28;21324;-35
2022/11/04 13:55:54;;;;;;;0.40;0.20;;;21.70;43.20;;;;;;6061571;28;20204;-36
2022/11/04 13:59:20;;;;;;;0.20;0.20;;;21.70;42.90;;;;;;6060968;28;20640;-35
2022/11/04 14:02:25;;;;;;;0.10;0.10;;;21.50;42.60;;;;;;6059697;28;20176;-35
2022/11/04 14:05:45;;;;;;;0.35;0.20;;;21.80;42.60;;;;;;6070786;28;21246;-35
2022/11/04 14:09:16;;;;;;;0.10;0.10;;;21.30;42.10;;;;;;6054355;28;20097;-36
2022/11/04 14:12:29;;;;;;;0.57;0.10;;;21.60;42.30;;;;;;6080147;28;21287;-35
2022/11/04 14:15:50;;;;;;;0.30;0.10;;;21.40;41.80;;;;;;6079267;28;21141;-35
2022/11/04 14:18:53;;;;;;;0.20;0.13;;;21.40;41.60;;;;;;6061871;28;21046;-35
2022/11/04 14:22:08;;;;;;;0.20;0.13;;;21.60;41.80;;;;;;6077749;28;20183;-35
2022/11/04 14:25:22;;;;;;;0.22;0.20;;;21.50;42.40;;;;;;6066556;28;20335;-35
2022/11/04 14:28:28;;;;;;;0.10;0.10;;;21.60;41.60;;;;;;6061429;28;20139;-35
2022/11/04 14:31:35;;;;;;;0.30;0.20;;;21.60;41.70;;;;;;6047791;28;20043;-35
2022/11/04 14:34:39;;;;;;;0.10;0.10;;;21.70;41.70;;;;;;6042964;28;21837;-35
2022/11/04 14:37:44;;;;;;;0.30;0.10;;;21.50;41.70;;;;;;6077272;28;20080;-34
2022/11/04 14:40:49;;;;;;;0.80;0.25;;;21.80;41.90;;;;;;6062528;28;20162;-35
2022/11/04 14:43:53;;;;;;;0.50;0.20;;;22.40;42.20;;;;;;6067669;28;20365;-35
2022/11/04 14:46:57;;;;;;;0.30;0.20;;;21.60;41.80;;;;;;6048503;28;20130;-36
2022/11/04 14:50:03;;;;;;;0.52;0.20;;;21.60;41.70;;;;;;6066664;28;22196;-36
2022/11/04 14:53:05;;;;;;;0.30;0.20;;;21.70;41.70;;;;;;6045053;28;20036;-35
2022/11/04 14:56:15;;;;;;;0.10;0.10;;;21.90;41.80;;;;;;6039600;28;20243;-35
2022/11/04 14:59:27;;;;;;;0.10;0.10;;;21.80;41.70;;;;;;6078177;28;20108;-35
2022/11/04 15:02:32;;;;;;;0.45;0.10;;;21.80;41.70;;;;;;6075653;28;20045;-35
2022/11/04 15:05:36;;;;;;;0.35;0.20;;;22.00;41.70;;;;;;6055336;28;20041;-35
2022/11/04 15:08:43;;;;;;;0.80;0.20;;;21.50;41.40;;;;;;6061247;28;20045;-35
2022/11/04 15:15:00;;;;;;;0.13;0.13;;;21.80;41.50;;;;;;6080994;28;20037;-35
2022/11/04 15:18:06;;;;;;;0.10;0.10;;;21.50;41.30;;;;;;6086897;28;20041;-34
2022/11/04 15:21:09;;;;;;;0.15;0.15;;;21.70;41.40;;;;;;6074236;28;22086;-35
2022/11/04 15:24:15;;;;;;;0.25;0.10;;;21.90;41.50;;;;;;6049773;28;20045;-35
2022/11/04 15:27:21;;;;;;;0.30;0.20;;;21.90;41.60;;;;;;6082953;28;20041;-34
2022/11/04 15:30:25;;;;;;;0.43;0.20;;;21.80;41.60;;;;;;6088296;28;20114;-34
2022/11/04 15:33:28;;;;;;;0.20;0.10;;;21.70;41.50;;;;;;6031717;28;20041;-35
2022/11/04 15:36:34;;;;;;;0.13;0.10;;;21.60;41.50;;;;;;6049265;28;21975;-35
2022/11/04 15:39:42;;;;;;;0.10;0.10;;;21.80;41.60;;;;;;6041695;28;20052;-36
2022/11/04 15:42:45;;;;;;;0.47;0.20;;;21.80;41.60;;;;;;6069725;28;20045;-35
2022/11/04 15:45:51;;;;;;;0.20;0.10;;;21.80;41.70;;;;;;6066533;28;20053;-35
2022/11/04 15:49:03;;;;;;;0.30;0.10;;;21.90;41.70;;;;;;6085085;28;20130;-35
2022/11/04 15:52:12;;;;;;;0.30;0.10;;;21.50;41.50;;;;;;6071987;28;20121;-35
2022/11/04 15:55:20;;;;;;;0.10;0.10;;;21.60;41.60;;;;;;6081848;28;20045;-35
2022/11/04 15:58:24;;;;;;;0.10;0.05;;;21.90;41.80;;;;;;6107098;28;20049;-35
2022/11/04 16:01:27;;;;;;;0.10;0.10;;;21.60;41.70;;;;;;6065432;28;22180;-34
2022/11/04 16:04:29;;;;;;;0.28;0.10;;;21.80;41.80;;;;;;6105130;28;20055;-35
2022/11/04 16:07:37;;;;;;;0.17;0.10;;;21.70;41.90;;;;;;6096699;28;21560;-35
2022/11/04 16:10:39;;;;;;;0.20;0.20;;;21.90;42.00;;;;;;6117468;28;20049;-36
2022/11/04 16:13:41;;;;;;;0.13;0.10;;;21.90;42.10;;;;;;6103797;28;20037;-35
2022/11/04 16:16:49;;;;;;;0.22;0.13;;;21.80;42.00;;;;;;6109178;28;20041;-34
2022/11/04 16:19:54;;;;;;;0.10;0.10;;;21.60;41.80;;;;;;6123652;28;21292;-36
2022/11/04 16:22:59;;;;;;;0.45;0.20;;;21.90;42.10;;;;;;6111340;28;20950;-35
2022/11/04 16:26:04;;;;;;;0.63;0.28;;;21.80;42.00;;;;;;6135149;28;20836;-35
2022/11/04 16:29:08;;;;;;;0.20;0.20;;;21.40;41.80;;;;;;6131819;28;20060;-35
2022/11/04 16:32:23;;;;;;;0.30;0.30;;;21.90;42.10;;;;;;6111160;28;22107;-35
2022/11/04 16:35:27;;;;;;;0.50;0.28;;;21.60;41.90;;;;;;6118368;28;21206;-35
2022/11/04 16:38:29;;;;;;;0.38;0.22;;;22.10;42.30;;;;;;6108789;28;20060;-35
2022/11/04 16:41:35;;;;;;;0.30;0.20;;;21.50;42.00;;;;;;6133505;28;20040;-35
2022/11/04 16:44:38;;;;;;;0.47;0.20;;;21.60;42.00;;;;;;6121255;28;20041;-35
2022/11/04 16:47:41;;;;;;;0.17;0.10;;;21.80;42.20;;;;;;6115371;28;21267;-35
2022/11/04 16:50:43;;;;;;;0.50;0.30;;;21.10;41.90;;;;;;6122048;28;20068;-34
2022/11/04 16:53:48;;;;;;;0.40;0.20;;;22.00;42.50;;;;;;6152815;28;20037;-35
2022/11/04 16:56:50;;;;;;;0.35;0.20;;;21.60;42.30;;;;;;6148430;28;20041;-35